createdAt,value
2017-10-17T00:00:03.561Z,92.90
2017-10-17T00:02:31.060Z,92.63
2017-10-17T00:04:58.616Z,103.97
2017-10-17T00:07:26.116Z,89.97
2017-10-17T00:09:53.699Z,101.50
2017-10-17T00:12:21.187Z,84.57
2017-10-17T00:14:48.742Z,88.77
2017-10-17T00:17:16.258Z,95.77
2017-10-17T00:19:43.869Z,86.83
2017-10-17T00:22:11.333Z,78.80
2017-10-17T00:24:38.864Z,87.90
2017-10-17T00:27:06.345Z,88.13
2017-10-17T00:29:33.880Z,86.13
2017-10-17T00:32:02.201Z,78.13
2017-10-17T00:34:29.686Z,80.30
2017-10-17T00:36:57.397Z,77.07
2017-10-17T00:39:24.962Z,77.30
2017-10-17T00:41:52.511Z,77.80
2017-10-17T00:44:20.037Z,88.43
2017-10-17T00:46:47.666Z,87.77
2017-10-17T00:49:15.140Z,81.10
2017-10-17T00:51:42.623Z,84.13
2017-10-17T00:54:10.134Z,67.10
2017-10-17T00:56:37.703Z,83.03
2017-10-17T00:59:05.218Z,64.77
2017-10-17T01:01:32.754Z,74.00
2017-10-17T01:04:00.252Z,79.47
2017-10-17T01:06:27.804Z,60.37
2017-10-17T01:08:55.361Z,60.70
2017-10-17T01:11:22.825Z,67.03
2017-10-17T01:13:50.345Z,63.00
2017-10-17T01:16:17.874Z,54.73
2017-10-17T01:18:45.400Z,58.13
2017-10-17T01:21:15.822Z,53.73
2017-10-17T01:23:48.677Z,47.70
2017-10-17T01:26:19.723Z,46.00
2017-10-17T01:28:47.296Z,50.90
2017-10-17T01:31:14.808Z,51.07
2017-10-17T01:46:40.332Z,57.10
2017-10-17T01:49:09.588Z,52.83
2017-10-17T01:51:41.495Z,57.10
2017-10-17T01:54:22.629Z,51.70
2017-10-17T01:56:50.149Z,45.77
2017-10-17T01:59:19.376Z,47.17
2017-10-17T02:01:47.006Z,42.10
2017-10-17T02:04:14.579Z,39.00
2017-10-17T02:06:42.090Z,41.57
2017-10-17T02:09:09.614Z,41.23
2017-10-17T02:11:37.141Z,41.73
2017-10-17T02:14:04.620Z,39.57
2017-10-17T02:16:32.506Z,48.50
2017-10-17T02:19:15.813Z,47.23
2017-10-17T02:21:59.871Z,39.60
2017-10-17T02:24:32.871Z,46.27
2017-10-17T02:27:00.382Z,45.60
2017-10-17T02:29:28.528Z,36.50
2017-10-17T02:31:56.123Z,36.67
2017-10-17T02:34:26.386Z,40.10
2017-10-17T02:36:53.997Z,37.87
2017-10-17T02:39:21.571Z,47.67
2017-10-17T02:41:49.114Z,44.07
2017-10-17T02:44:16.620Z,42.93
2017-10-17T02:46:44.903Z,39.50
2017-10-17T02:49:13.145Z,34.83
2017-10-17T02:51:41.437Z,41.53
2017-10-17T02:54:08.935Z,45.90
2017-10-17T02:56:36.462Z,42.37
2017-10-17T02:59:07.804Z,46.70
2017-10-17T03:01:48.059Z,43.50
2017-10-17T03:04:26.065Z,47.10
2017-10-17T03:06:53.614Z,42.83
2017-10-17T03:09:21.146Z,50.27
2017-10-17T03:11:48.693Z,41.83
2017-10-17T03:14:20.725Z,40.90
2017-10-17T03:16:48.258Z,38.80
2017-10-17T03:19:15.789Z,40.10
2017-10-17T03:21:55.891Z,41.00
2017-10-17T03:24:27.069Z,43.70
2017-10-17T03:26:54.562Z,46.23
2017-10-17T03:29:22.063Z,53.63
2017-10-17T03:31:49.549Z,54.27
2017-10-17T03:34:27.962Z,42.20
2017-10-17T03:40:15.966Z,61.30
2017-10-17T03:42:45.857Z,56.27
2017-10-17T03:45:18.973Z,64.23
2017-10-17T03:48:07.105Z,61.77
2017-10-17T03:50:36.877Z,56.27
2017-10-17T03:56:03.250Z,65.70
2017-10-17T03:58:34.445Z,64.37
2017-10-17T04:01:01.905Z,54.30
2017-10-17T04:03:36.869Z,58.80
2017-10-17T04:09:09.812Z,62.97
2017-10-17T04:11:37.279Z,60.97
2017-10-17T04:17:03.750Z,58.93
2017-10-17T04:19:35.866Z,77.33
2017-10-17T04:22:05.141Z,78.73
2017-10-17T04:24:41.972Z,65.80
2017-10-17T04:27:15.019Z,67.73
2017-10-17T04:29:48.124Z,61.83
2017-10-17T04:32:15.616Z,58.33
2017-10-17T04:34:53.087Z,66.70
2017-10-17T04:37:31.451Z,59.23
2017-10-17T04:39:58.942Z,53.90
2017-10-17T04:42:28.867Z,51.17
2017-10-17T04:48:28.157Z,62.60
2017-10-17T04:51:06.269Z,48.90
2017-10-17T04:56:36.424Z,53.37
2017-10-17T04:59:23.622Z,59.70
2017-10-17T05:01:53.032Z,76.60
2017-10-17T05:04:50.967Z,88.13
2017-10-17T05:07:35.086Z,72.50
2017-10-17T05:10:07.026Z,68.50
2017-10-17T05:12:35.898Z,80.80
2017-10-17T05:15:04.174Z,81.27
2017-10-17T05:17:39.188Z,70.50
2017-10-17T05:20:27.311Z,66.30
2017-10-17T05:23:03.370Z,96.30
2017-10-17T05:25:31.641Z,80.20
2017-10-17T05:28:10.925Z,97.33
2017-10-17T05:30:47.324Z,88.73
2017-10-17T05:36:37.119Z,55.93
2017-10-17T05:39:06.367Z,106.47
2017-10-17T05:41:33.913Z,82.00
2017-10-17T05:44:15.234Z,65.83
2017-10-17T05:46:42.714Z,62.07
2017-10-17T05:49:25.809Z,64.43
2017-10-17T05:51:53.298Z,56.57
2017-10-17T05:54:20.769Z,53.30
2017-10-17T05:56:48.284Z,48.03
2017-10-17T05:59:15.799Z,60.63
2017-10-17T06:01:43.285Z,58.77
2017-10-17T06:04:10.797Z,62.40
2017-10-17T06:06:38.254Z,57.40
2017-10-17T06:09:05.716Z,45.43
2017-10-17T06:11:33.220Z,69.43
2017-10-17T06:14:00.704Z,54.60
2017-10-17T06:16:28.204Z,51.80
2017-10-17T06:18:55.673Z,45.90
2017-10-17T06:21:23.167Z,44.40
2017-10-17T06:23:50.647Z,46.53
2017-10-17T06:26:18.159Z,51.87
2017-10-17T06:28:45.638Z,42.00
2017-10-17T06:31:13.096Z,44.77
2017-10-17T06:33:40.598Z,43.63
2017-10-17T06:38:41.755Z,41.40
2017-10-17T06:41:09.253Z,50.20
2017-10-17T06:43:36.726Z,40.37
2017-10-17T06:46:04.218Z,39.50
2017-10-17T06:48:31.740Z,32.97
2017-10-17T06:50:59.212Z,44.03
2017-10-17T06:53:26.693Z,36.30
2017-10-17T06:55:54.182Z,35.13
2017-10-17T06:58:21.645Z,44.03
2017-10-17T07:00:49.123Z,35.57
2017-10-17T07:03:16.602Z,36.67
2017-10-17T07:05:44.089Z,31.83
2017-10-17T07:08:11.599Z,37.77
2017-10-17T07:10:39.055Z,36.60
2017-10-17T07:13:06.736Z,33.50
2017-10-17T07:15:34.232Z,38.00
2017-10-17T07:18:01.703Z,38.43
2017-10-17T07:20:29.190Z,38.27
2017-10-17T07:22:56.705Z,41.00
2017-10-17T07:25:24.169Z,36.00
2017-10-17T07:27:51.640Z,36.00
2017-10-17T07:30:19.148Z,37.30
2017-10-17T07:32:46.616Z,40.43
2017-10-17T07:35:14.074Z,48.40
2017-10-17T07:37:41.560Z,43.97
2017-10-17T07:40:09.009Z,43.50
2017-10-17T07:42:36.461Z,52.97
2017-10-17T07:45:04.011Z,49.97
2017-10-17T07:47:31.477Z,39.70
2017-10-17T07:49:58.941Z,48.37
2017-10-17T07:52:26.440Z,39.20
2017-10-17T07:54:53.954Z,51.77
2017-10-17T07:57:21.430Z,49.17
2017-10-17T07:59:48.916Z,41.60
2017-10-17T08:02:16.397Z,43.40
2017-10-17T08:04:43.861Z,58.77
2017-10-17T08:07:11.355Z,38.27
2017-10-17T08:09:38.878Z,35.27
2017-10-17T08:12:06.351Z,37.00
2017-10-17T08:14:33.847Z,40.17
2017-10-17T08:17:01.322Z,40.23
2017-10-17T08:19:28.803Z,58.43
2017-10-17T08:21:56.294Z,50.90
2017-10-17T08:24:23.767Z,40.80
2017-10-17T08:26:51.298Z,42.00
2017-10-17T08:29:18.783Z,47.03
2017-10-17T08:31:46.342Z,47.50
2017-10-17T08:34:13.809Z,47.27
2017-10-17T08:36:41.305Z,52.13
2017-10-17T08:39:08.766Z,57.30
2017-10-17T08:41:36.229Z,48.90
2017-10-17T08:44:03.707Z,48.37
2017-10-17T08:46:31.169Z,47.50
2017-10-17T08:48:58.659Z,43.03
2017-10-17T08:51:26.152Z,50.97
2017-10-17T08:53:53.656Z,49.03
2017-10-17T08:56:21.161Z,51.00
2017-10-17T08:58:48.660Z,45.23
2017-10-17T09:01:16.148Z,53.20
2017-10-17T09:03:43.622Z,47.43
2017-10-17T09:06:11.097Z,57.23
2017-10-17T09:08:38.568Z,52.33
2017-10-17T09:11:06.035Z,52.93
2017-10-17T09:13:33.507Z,51.90
2017-10-17T09:16:00.975Z,47.60
2017-10-17T09:18:28.474Z,55.90
2017-10-17T09:20:55.972Z,49.77
2017-10-17T09:23:23.474Z,52.33
2017-10-17T09:25:50.943Z,57.30
2017-10-17T09:28:18.422Z,51.40
2017-10-17T09:30:45.899Z,53.97
2017-10-17T09:33:13.380Z,52.27
2017-10-17T09:35:40.880Z,56.70
2017-10-17T09:38:08.344Z,58.17
2017-10-17T09:40:35.817Z,54.20
2017-10-17T09:43:03.304Z,68.77
2017-10-17T09:45:30.753Z,62.90
2017-10-17T09:47:58.397Z,68.57
2017-10-17T09:50:25.990Z,65.63
2017-10-17T09:52:53.462Z,70.60
2017-10-17T09:55:20.925Z,65.93
2017-10-17T09:57:48.919Z,70.03
2017-10-17T10:00:16.420Z,67.00
2017-10-17T10:02:43.886Z,73.13
2017-10-17T10:05:11.392Z,89.23
2017-10-17T10:07:38.871Z,67.73
2017-10-17T10:10:06.358Z,76.60
2017-10-17T10:12:33.910Z,73.00
2017-10-17T10:15:01.420Z,78.80
2017-10-17T10:17:28.965Z,73.33
2017-10-17T10:19:56.494Z,68.47
2017-10-17T10:22:23.978Z,70.00
2017-10-17T10:24:51.466Z,77.70
2017-10-17T10:27:18.989Z,65.00
2017-10-17T10:29:46.458Z,78.30
2017-10-17T10:32:13.978Z,77.33
2017-10-17T10:34:41.465Z,76.33
2017-10-17T10:37:08.934Z,87.03
2017-10-17T10:39:36.425Z,81.90
2017-10-17T10:42:03.907Z,82.97
2017-10-17T10:44:31.364Z,81.07
2017-10-17T10:46:58.831Z,82.87
2017-10-17T10:49:26.300Z,92.17
2017-10-17T10:51:53.806Z,80.07
2017-10-17T10:54:21.285Z,82.70
2017-10-17T10:56:48.780Z,83.60
2017-10-17T10:59:16.284Z,87.27
2017-10-17T11:01:43.855Z,78.60
2017-10-17T11:04:11.348Z,72.67
2017-10-17T11:06:38.878Z,72.93
2017-10-17T11:09:06.385Z,78.90
2017-10-17T11:11:33.858Z,74.20
2017-10-17T11:14:01.338Z,72.30
2017-10-17T11:16:28.811Z,71.97
2017-10-17T11:18:56.286Z,68.10
2017-10-17T11:21:23.787Z,70.27
2017-10-17T11:23:51.439Z,67.27
2017-10-17T11:26:18.925Z,67.77
2017-10-17T11:28:46.388Z,66.07
2017-10-17T11:31:13.849Z,99.87
2017-10-17T11:33:41.352Z,65.83
2017-10-17T11:36:08.813Z,82.73
2017-10-17T11:38:36.290Z,70.20
2017-10-17T11:41:15.482Z,66.67
2017-10-17T11:43:53.933Z,75.17
2017-10-17T11:46:21.455Z,68.07
2017-10-17T11:48:48.952Z,59.20
2017-10-17T11:51:16.421Z,61.77
2017-10-17T11:53:43.896Z,64.30
2017-10-17T11:56:11.369Z,59.00
2017-10-17T11:58:38.836Z,58.57
2017-10-17T12:01:06.320Z,56.37
2017-10-17T12:03:33.857Z,60.87
2017-10-17T12:06:01.313Z,62.57
2017-10-17T12:08:28.852Z,63.00
2017-10-17T12:10:56.322Z,57.77
2017-10-17T12:13:23.805Z,60.30
2017-10-17T12:15:51.300Z,56.80
2017-10-17T12:18:18.784Z,50.87
2017-10-17T12:20:46.285Z,60.33
2017-10-17T12:23:13.823Z,55.30
2017-10-17T12:25:41.336Z,62.40
2017-10-17T12:28:08.840Z,60.70
2017-10-17T12:30:36.309Z,73.53
2017-10-17T12:33:03.804Z,58.07
2017-10-17T12:35:31.328Z,61.10
2017-10-17T12:37:58.843Z,48.57
2017-10-17T12:40:26.346Z,52.37
2017-10-17T12:42:53.847Z,44.97
2017-10-17T12:45:21.336Z,50.47
2017-10-17T12:47:48.852Z,42.60
2017-10-17T12:50:16.353Z,52.87
2017-10-17T12:52:43.913Z,45.30
2017-10-17T12:55:11.383Z,48.93
2017-10-17T12:57:38.865Z,46.37
2017-10-17T13:00:06.377Z,41.83
2017-10-17T13:02:33.858Z,44.37
2017-10-17T13:05:01.353Z,44.73
2017-10-17T13:07:28.843Z,44.87
2017-10-17T13:09:56.330Z,38.90
2017-10-17T13:12:23.814Z,55.90
2017-10-17T13:14:51.412Z,45.93
2017-10-17T13:17:18.887Z,46.27
2017-10-17T13:19:46.405Z,48.80
2017-10-17T13:22:13.925Z,41.30
2017-10-17T13:24:41.413Z,39.23
2017-10-17T13:27:08.890Z,38.27
2017-10-17T13:29:36.401Z,46.07
2017-10-17T13:32:03.884Z,36.77
2017-10-17T13:34:31.353Z,39.30
2017-10-17T13:36:58.882Z,36.60
2017-10-17T13:39:26.352Z,27.13
2017-10-17T13:41:53.822Z,33.80
2017-10-17T13:44:21.301Z,41.97
2017-10-17T13:46:48.803Z,30.53
2017-10-17T13:49:16.284Z,36.63
2017-10-17T13:51:43.756Z,35.43
2017-10-17T13:54:11.316Z,28.30
2017-10-17T13:56:38.819Z,25.70
2017-10-17T13:59:06.300Z,26.37
2017-10-17T14:01:33.768Z,22.67
2017-10-17T14:04:01.255Z,20.67
2017-10-17T14:06:28.751Z,17.37
2017-10-17T14:08:56.236Z,16.60
2017-10-17T14:11:23.713Z,19.83
2017-10-17T14:13:51.260Z,15.43
2017-10-17T14:16:18.741Z,14.73
2017-10-17T14:18:46.229Z,18.80
2017-10-17T14:21:13.773Z,12.17
2017-10-17T14:23:41.269Z,12.73
2017-10-17T14:26:08.755Z,13.27
2017-10-17T14:28:36.334Z,11.87
2017-10-17T14:31:03.830Z,13.37
2017-10-17T14:33:31.312Z,12.23
2017-10-17T14:35:58.803Z,12.40
2017-10-17T14:38:26.286Z,15.80
2017-10-17T14:40:53.765Z,17.03
2017-10-17T14:43:21.243Z,11.87
2017-10-17T14:45:48.737Z,13.87
2017-10-17T14:48:16.229Z,10.97
2017-10-17T14:50:43.723Z,13.63
2017-10-17T14:53:11.192Z,12.30
2017-10-17T14:55:38.723Z,14.37
2017-10-17T14:58:06.221Z,13.73
2017-10-17T15:00:33.677Z,12.03
2017-10-17T15:03:01.138Z,12.27
2017-10-17T15:05:28.703Z,11.70
2017-10-17T15:07:56.347Z,14.60
2017-10-17T15:10:23.823Z,14.70
2017-10-17T15:12:51.313Z,18.20
2017-10-17T15:15:18.824Z,14.77
2017-10-17T15:17:46.327Z,18.43
2017-10-17T15:20:13.816Z,23.57
2017-10-17T15:22:41.278Z,17.20
2017-10-17T15:25:08.804Z,18.90
2017-10-17T15:27:36.313Z,23.13
2017-10-17T15:30:03.773Z,20.30
2017-10-17T15:32:31.266Z,18.93
2017-10-17T15:34:59.243Z,21.50
2017-10-17T15:37:26.732Z,15.33
2017-10-17T15:39:54.229Z,23.30
2017-10-17T15:42:21.720Z,23.60
2017-10-17T15:44:49.184Z,22.07
2017-10-17T15:47:16.668Z,28.80
2017-10-17T15:49:44.169Z,23.70
2017-10-17T15:52:11.679Z,22.00
2017-10-17T15:54:39.152Z,21.70
2017-10-17T15:57:06.636Z,21.07
2017-10-17T15:59:34.136Z,24.13
2017-10-17T16:02:01.648Z,27.83
2017-10-17T16:04:29.199Z,26.43
2017-10-17T16:06:56.673Z,23.90
2017-10-17T16:09:24.175Z,29.20
2017-10-17T16:11:51.846Z,26.40
2017-10-17T16:14:19.334Z,29.10
2017-10-17T16:16:46.802Z,33.30
2017-10-17T16:19:14.289Z,24.13
2017-10-17T16:21:41.799Z,32.43
2017-10-17T16:24:09.708Z,29.70
2017-10-17T16:26:37.210Z,25.77
2017-10-17T16:29:04.733Z,32.57
2017-10-17T16:31:32.202Z,26.97
2017-10-17T16:33:59.690Z,31.40
2017-10-17T16:36:27.157Z,34.03
2017-10-17T16:41:28.341Z,33.20
2017-10-17T16:43:55.829Z,32.20
2017-10-17T16:46:23.318Z,29.13
2017-10-17T16:48:50.795Z,32.00
2017-10-17T16:51:18.298Z,40.87
2017-10-17T16:53:45.800Z,35.60
2017-10-17T16:56:13.352Z,41.13
2017-10-17T16:58:40.826Z,34.30
2017-10-17T17:01:08.311Z,33.77
2017-10-17T17:16:30.805Z,37.57
2017-10-17T17:18:58.281Z,40.10
2017-10-17T17:21:25.736Z,33.40
2017-10-17T17:23:53.254Z,38.00
2017-10-17T17:26:20.730Z,38.90
2017-10-17T17:28:48.187Z,33.60
2017-10-17T17:31:15.686Z,36.23
2017-10-17T17:33:43.164Z,36.50
2017-10-17T17:36:10.682Z,38.37
2017-10-17T17:38:38.167Z,32.30
2017-10-17T17:41:05.636Z,33.30
2017-10-17T17:43:33.115Z,31.83
2017-10-17T17:46:00.616Z,50.60
2017-10-17T17:48:28.107Z,33.83
2017-10-17T17:50:55.570Z,34.00
2017-10-17T17:53:23.066Z,37.33
2017-10-17T17:55:50.572Z,37.47
2017-10-17T17:58:18.049Z,35.93
2017-10-17T18:00:45.578Z,33.00
2017-10-17T18:03:13.068Z,35.23
2017-10-17T18:05:40.539Z,28.33
2017-10-17T18:08:08.033Z,36.33
2017-10-17T18:10:35.520Z,36.53
2017-10-17T18:13:03.019Z,34.50
2017-10-17T18:15:30.537Z,35.93
2017-10-17T18:17:58.019Z,33.10
2017-10-17T18:20:25.511Z,36.50
2017-10-17T18:22:53.044Z,34.43
2017-10-17T18:25:20.500Z,32.20
2017-10-17T18:27:47.968Z,29.87
2017-10-17T18:30:15.473Z,30.67
2017-10-17T18:32:42.968Z,36.97
2017-10-17T18:35:10.485Z,31.60
2017-10-17T18:37:38.015Z,35.57
2017-10-17T18:40:05.568Z,40.57
2017-10-17T18:42:33.045Z,36.73
2017-10-17T18:45:00.533Z,41.90
2017-10-17T18:47:28.011Z,36.77
2017-10-17T18:49:55.539Z,40.80
2017-10-17T18:52:23.109Z,49.70
2017-10-17T18:54:50.597Z,35.87
2017-10-17T18:57:18.089Z,33.27
2017-10-17T18:59:45.652Z,35.00
2017-10-17T19:02:13.145Z,35.03
2017-10-17T19:04:40.613Z,39.03
2017-10-17T19:07:08.131Z,31.07
2017-10-17T19:09:35.600Z,29.00
2017-10-17T19:12:03.059Z,38.73
2017-10-17T19:14:30.547Z,33.50
2017-10-17T19:16:58.046Z,33.53
2017-10-17T19:19:25.534Z,32.53
2017-10-17T19:21:53.047Z,28.33
2017-10-17T19:24:20.562Z,33.50
2017-10-17T19:26:48.039Z,27.50
2017-10-17T19:29:15.680Z,32.80
2017-10-17T19:31:43.226Z,29.47
2017-10-17T19:34:10.729Z,38.77
2017-10-17T19:36:38.226Z,35.07
2017-10-17T19:39:05.702Z,30.53
2017-10-17T19:41:33.170Z,32.33
2017-10-17T19:44:00.713Z,38.57
2017-10-17T19:46:28.224Z,31.83
2017-10-17T19:48:55.730Z,37.47
2017-10-17T19:51:23.250Z,30.10
2017-10-17T19:53:50.709Z,30.03
2017-10-17T19:56:18.186Z,40.50
2017-10-17T19:58:45.673Z,34.93
2017-10-17T20:01:13.152Z,30.50
2017-10-17T20:03:40.629Z,29.90
2017-10-17T20:06:08.107Z,34.13
2017-10-17T20:08:35.592Z,31.60
2017-10-17T20:11:03.136Z,33.47
2017-10-17T20:13:30.608Z,31.57
2017-10-17T20:15:58.081Z,32.63
2017-10-17T20:18:25.628Z,29.40
2017-10-17T20:20:53.158Z,30.67
2017-10-17T20:23:20.648Z,29.70
2017-10-17T20:25:48.116Z,36.67
2017-10-17T20:28:15.670Z,28.90
2017-10-17T20:30:43.233Z,31.40
2017-10-17T20:33:10.727Z,28.23
2017-10-17T20:35:38.221Z,28.97
2017-10-17T20:38:05.732Z,30.87
2017-10-17T20:40:33.243Z,27.40
2017-10-17T20:43:00.794Z,29.20
2017-10-17T20:45:28.263Z,28.83
2017-10-17T20:47:55.769Z,29.47
2017-10-17T20:50:23.256Z,31.73
2017-10-17T20:52:50.714Z,32.93
2017-10-17T20:55:18.177Z,33.67
2017-10-17T20:57:45.713Z,35.57
2017-10-17T21:00:13.200Z,37.90
2017-10-17T21:02:40.669Z,34.10
2017-10-17T21:05:08.173Z,33.07
2017-10-17T21:07:35.701Z,35.97
2017-10-17T21:10:03.191Z,40.57
2017-10-17T21:12:30.714Z,36.93
2017-10-17T21:14:58.191Z,35.53
2017-10-17T21:17:25.660Z,40.37
2017-10-17T21:19:53.145Z,41.97
2017-10-17T21:22:20.611Z,38.40
2017-10-17T21:24:48.100Z,33.20
2017-10-17T21:27:15.582Z,31.70
2017-10-17T21:29:43.145Z,39.70
2017-10-17T21:32:10.605Z,33.03
2017-10-17T21:34:38.126Z,33.90
2017-10-17T21:37:05.630Z,35.13
2017-10-17T21:39:33.105Z,38.20
2017-10-17T21:42:00.622Z,38.00
2017-10-17T21:44:28.103Z,36.90
2017-10-17T21:46:55.593Z,34.17
2017-10-17T21:49:23.103Z,37.47
2017-10-17T21:51:50.563Z,34.80
2017-10-17T21:54:18.046Z,34.53
2017-10-17T21:56:45.557Z,38.20
2017-10-17T21:59:13.013Z,31.73
2017-10-17T22:01:40.496Z,38.27
2017-10-17T22:04:07.970Z,42.00
2017-10-17T22:06:35.455Z,39.20
2017-10-17T22:09:02.957Z,37.97
2017-10-17T22:11:30.440Z,39.07
2017-10-17T22:13:57.932Z,39.80
2017-10-17T22:16:25.396Z,37.13
2017-10-17T22:21:26.741Z,40.20
2017-10-17T22:23:54.230Z,39.07
2017-10-17T22:26:21.692Z,41.30
2017-10-17T22:28:49.163Z,41.20
2017-10-17T22:31:16.680Z,37.77
2017-10-17T22:33:44.150Z,35.60
2017-10-17T22:36:11.608Z,37.57
2017-10-17T22:38:39.116Z,35.93
2017-10-17T22:41:06.581Z,36.73
2017-10-17T22:43:34.048Z,43.70
2017-10-17T22:46:01.624Z,43.83
2017-10-17T22:48:29.106Z,39.83
2017-10-17T22:50:56.576Z,41.17
2017-10-17T22:53:24.051Z,40.50
2017-10-17T22:55:51.528Z,43.37
2017-10-17T22:58:18.994Z,46.37
2017-10-17T23:00:47.330Z,46.17
2017-10-17T23:03:14.846Z,43.67
2017-10-17T23:05:42.334Z,46.13
2017-10-17T23:08:09.813Z,44.50
2017-10-17T23:10:37.278Z,46.20
2017-10-17T23:13:04.736Z,48.03
2017-10-17T23:15:32.222Z,42.57
2017-10-17T23:18:11.358Z,52.47
2017-10-17T23:20:38.993Z,55.43
2017-10-17T23:23:06.466Z,55.67
2017-10-17T23:25:33.938Z,54.27
2017-10-17T23:28:01.430Z,56.63
2017-10-17T23:30:28.908Z,51.50
2017-10-17T23:32:56.367Z,55.10
2017-10-17T23:35:23.852Z,53.77
2017-10-17T23:37:51.335Z,54.00
2017-10-17T23:40:18.793Z,52.70
2017-10-17T23:42:46.338Z,60.50
2017-10-17T23:45:13.819Z,51.80
2017-10-17T23:47:41.281Z,53.40
2017-10-17T23:50:08.809Z,52.77
2017-10-17T23:52:36.294Z,48.60
2017-10-17T23:55:03.778Z,56.77
2017-10-17T23:57:31.338Z,64.13
2017-10-17T23:59:58.812Z,63.47
